Time;durP1;ratioP1;P1;durP2;ratioP2;P2;SDS_P1;SDS_P2;PMS_P1;PMS_P2;Temp;Humidity;BMP_temperature;BMP_pressure;BME280_temperature;BME280_humidity;BME280_pressure;Samples;Min_cycle;Max_cycle;Signal;HPM_P1;HPM_P2
2022/01/31 00:01:09;;;;;;;23.40;7.47;;;5.00;99.90;;;;;;5094642;28;20040;-76
2022/01/31 00:03:35;;;;;;;17.97;6.93;;;5.00;99.90;;;;;;5093119;28;20051;-77
2022/01/31 00:06:02;;;;;;;27.30;6.90;;;5.10;99.90;;;;;;5094733;28;20218;-76
2022/01/31 00:08:28;;;;;;;24.15;7.18;;;5.10;99.90;;;;;;5094676;28;20043;-76
2022/01/31 00:10:53;;;;;;;22.53;5.77;;;5.20;99.90;;;;;;5093753;28;20105;-76
2022/01/31 00:13:31;;;;;;;23.73;6.77;;;5.20;99.90;;;;;;5093326;28;20430;-76
2022/01/31 00:15:57;;;;;;;24.30;5.78;;;5.10;99.90;;;;;;5093331;28;20055;-76
2022/01/31 00:18:23;;;;;;;21.08;6.20;;;5.10;99.90;;;;;;5094441;28;20086;-76
2022/01/31 00:20:50;;;;;;;21.85;5.70;;;5.00;99.90;;;;;;5092832;28;20113;-76
2022/01/31 00:23:16;;;;;;;20.02;5.75;;;5.30;99.90;;;;;;5094373;28;20067;-76
2022/01/31 00:25:42;;;;;;;16.10;5.17;;;5.10;99.90;;;;;;5094034;28;20051;-76
2022/01/31 00:28:08;;;;;;;22.07;5.57;;;5.40;99.90;;;;;;5094253;28;20400;-76
2022/01/31 00:30:33;;;;;;;24.33;6.00;;;5.00;99.90;;;;;;5094081;28;20075;-82
2022/01/31 00:32:59;;;;;;;24.20;5.80;;;5.10;99.90;;;;;;5094483;28;20468;-76
2022/01/31 00:35:26;;;;;;;25.47;5.33;;;5.10;99.90;;;;;;5094294;28;20048;-76
2022/01/31 00:37:52;;;;;;;22.75;6.28;;;5.10;99.90;;;;;;5092839;28;20058;-76
2022/01/31 00:40:19;;;;;;;25.42;6.22;;;5.10;99.90;;;;;;5094291;28;20066;-76
2022/01/31 00:42:45;;;;;;;21.85;6.10;;;5.20;99.90;;;;;;5092800;28;20125;-76
2022/01/31 00:45:23;;;;;;;26.97;6.33;;;5.10;99.90;;;;;;5093262;28;20381;-76
2022/01/31 00:47:59;;;;;;;22.73;7.15;;;5.20;99.90;;;;;;5077590;28;20051;-76
2022/01/31 00:50:25;;;;;;;24.10;6.43;;;5.10;99.90;;;;;;5094011;28;20147;-76
2022/01/31 00:52:50;;;;;;;30.67;7.43;;;5.10;99.90;;;;;;5093439;28;20076;-76
2022/01/31 00:55:16;;;;;;;23.43;7.80;;;5.10;99.90;;;;;;5093784;28;20044;-76
2022/01/31 00:57:43;;;;;;;27.00;7.67;;;5.10;99.90;;;;;;5093002;28;20102;-75
2022/01/31 01:00:11;;;;;;;32.50;8.10;;;5.10;99.90;;;;;;5093598;28;20040;-74
2022/01/31 01:02:38;;;;;;;29.52;7.90;;;4.90;99.90;;;;;;5093368;28;20046;-75
2022/01/31 01:05:04;;;;;;;27.38;8.43;;;5.00;99.90;;;;;;5092334;28;20048;-75
2022/01/31 01:07:30;;;;;;;25.73;8.27;;;;;;;;;;5093680;28;20052;-74
2022/01/31 01:09:56;;;;;;;28.50;9.68;;;;;;;;;;5093154;28;20040;-74
2022/01/31 01:12:22;;;;;;;30.55;9.70;;;;;;;;;;5093340;28;20507;-74
2022/01/31 01:14:49;;;;;;;27.25;9.55;;;;;;;;;;5093165;28;20070;-74
2022/01/31 01:17:15;;;;;;;29.90;9.93;;;;;;;;;;5092996;28;20093;-74
2022/01/31 01:19:43;;;;;;;24.60;8.93;;;;;;;;;;5092854;28;20044;-75
2022/01/31 01:22:09;;;;;;;29.35;9.50;;;;;;;;;;5092447;28;20047;-75
2022/01/31 01:24:35;;;;;;;32.78;10.70;;;;;;;;;;5093157;28;20051;-75
2022/01/31 01:27:01;;;;;;;35.45;11.65;;;;;;;;;;5092996;28;20527;-75
2022/01/31 01:29:27;;;;;;;30.95;11.40;;;;;;;;;;5093421;28;20048;-74
2022/01/31 01:31:54;;;;;;;26.85;9.90;;;;;;;;;;5092738;28;20134;-74
2022/01/31 01:34:21;;;;;;;22.98;10.75;;;;;;;;;;5093144;28;20134;-74
2022/01/31 01:36:50;;;;;;;24.05;10.05;;;;;;;;;;5092744;28;20051;-75
2022/01/31 01:39:16;;;;;;;18.60;9.65;;;;;;;;;;5093129;28;20062;-74
2022/01/31 01:41:43;;;;;;;16.83;7.82;;;;;;;;;;5092734;28;20110;-81
2022/01/31 01:44:09;;;;;;;15.45;6.78;;;;;;;;;;5092953;28;20055;-75
2022/01/31 01:46:36;;;;;;;12.27;5.30;;;;;;;;;;5093048;28;20036;-75
2022/01/31 01:49:02;;;;;;;11.65;5.72;;;;;;;;;;5074737;28;20081;-75
2022/01/31 01:51:28;;;;;;;15.25;6.70;;;;;;;;;;5075135;28;20369;-75
2022/01/31 01:53:54;;;;;;;15.18;7.28;;;;;;;;;;5092648;28;20075;-75
2022/01/31 01:56:20;;;;;;;19.02;6.95;;;;;;;;;;5092610;28;20157;-76
2022/01/31 01:58:48;;;;;;;20.52;7.20;;;;;;;;;;5092629;28;20051;-77
2022/01/31 02:01:14;;;;;;;14.32;7.10;;;;;;;;;;5091942;28;20044;-76
2022/01/31 02:03:41;;;;;;;13.50;7.00;;;;;;;;;;5093007;28;20089;-76
2022/01/31 02:06:08;;;;;;;14.07;7.28;;;;;;;;;;5092445;28;20069;-76
2022/01/31 02:08:42;;;;;;;14.48;8.10;;;;;;;;;;5125835;28;20048;-76
2022/01/31 02:11:09;;;;;;;16.65;7.80;;;;;;;;;;5092535;28;20040;-76
2022/01/31 02:13:36;;;;;;;19.30;8.75;;;;;;;;;;5091603;28;20048;-76
2022/01/31 02:16:03;;;;;;;20.60;8.20;;;;;;;;;;5092434;28;20083;-76
2022/01/31 02:18:30;;;;;;;20.90;7.85;;;;;;;;;;5092798;28;20514;-76
2022/01/31 02:20:56;;;;;;;18.23;7.68;;;;;;;;;;5091166;28;20051;-76
2022/01/31 02:23:23;;;;;;;14.43;7.82;;;;;;;;;;5092749;28;20091;-77
2022/01/31 02:26:03;;;;;;;16.23;8.05;;;;;;;;;;5091435;28;20403;-77
2022/01/31 02:28:32;;;;;;;18.20;7.18;;;;;;;;;;5092976;28;20102;-76
2022/01/31 02:30:58;;;;;;;13.90;7.03;;;;;;;;;;5092276;28;20117;-76
2022/01/31 02:33:24;;;;;;;13.10;7.13;;;;;;;;;;5092953;28;20044;-75
2022/01/31 02:35:53;;;;;;;13.40;6.20;;;;;;;;;;5096113;28;20384;-75
2022/01/31 02:38:20;;;;;;;18.42;6.60;;;;;;;;;;5096334;28;20411;-75
2022/01/31 02:40:46;;;;;;;18.42;7.05;;;;;;;;;;5096255;28;20040;-76
2022/01/31 02:43:22;;;;;;;15.02;6.13;;;;;;;;;;5095987;28;20048;-76
2022/01/31 02:45:48;;;;;;;16.08;6.43;;;;;;;;;;5096227;28;20048;-75
2022/01/31 02:48:17;;;;;;;14.82;5.13;;;;;;;;;;5095813;28;20048;-76
2022/01/31 02:50:43;;;;;;;16.35;5.38;;;;;;;;;;5095917;28;20538;-75
2022/01/31 02:55:47;;;;;;;22.05;5.28;;;;;;;;;;5096128;28;20075;-76
2022/01/31 02:58:14;;;;;;;19.55;5.05;;;5.30;99.90;;;;;;5095635;28;20063;-76
2022/01/31 03:00:41;;;;;;;29.90;6.25;;;5.30;99.90;;;;;;5095741;28;20046;-77
2022/01/31 03:03:07;;;;;;;22.42;4.72;;;5.30;99.90;;;;;;5095611;28;20044;-77
2022/01/31 03:05:32;;;;;;;27.80;6.50;;;5.40;99.90;;;;;;5095882;28;20079;-77
2022/01/31 03:07:59;;;;;;;31.00;5.80;;;5.50;99.90;;;;;;5095499;28;20051;-78
2022/01/31 03:10:24;;;;;;;26.00;5.22;;;5.60;99.90;;;;;;5095667;28;20044;-77
2022/01/31 03:12:50;;;;;;;28.73;5.20;;;5.70;99.90;;;;;;5095736;28;20051;-77
2022/01/31 03:15:16;;;;;;;39.23;6.03;;;5.70;99.90;;;;;;5094340;28;20033;-76
2022/01/31 03:17:46;;;;;;;37.60;5.83;;;5.80;99.90;;;;;;5095777;28;20048;-77
2022/01/31 03:20:12;;;;;;;28.67;5.15;;;5.80;99.90;;;;;;5095345;28;20118;-77
2022/01/31 03:22:38;;;;;;;39.38;5.45;;;5.90;99.90;;;;;;5094404;28;20131;-77
2022/01/31 03:25:04;;;;;;;24.80;4.47;;;5.90;99.90;;;;;;5093897;28;20177;-78
2022/01/31 03:27:30;;;;;;;35.70;5.80;;;5.90;99.90;;;;;;5095525;28;20077;-78
2022/01/31 03:29:56;;;;;;;32.00;5.65;;;6.00;99.90;;;;;;5095082;28;20054;-81
2022/01/31 03:32:22;;;;;;;25.83;5.50;;;6.00;99.90;;;;;;5095410;28;20135;-78
2022/01/31 03:34:47;;;;;;;27.33;5.37;;;6.00;99.90;;;;;;5094281;28;20051;-78
2022/01/31 03:37:13;;;;;;;35.03;6.20;;;6.00;99.90;;;;;;5094909;28;20048;-77
2022/01/31 03:39:39;;;;;;;29.37;5.33;;;6.00;99.90;;;;;;5095202;28;20051;-77
2022/01/31 03:42:05;;;;;;;28.80;5.13;;;6.00;99.90;;;;;;5093921;28;20472;-77
2022/01/31 03:44:30;;;;;;;16.60;4.47;;;6.10;99.90;;;;;;5094961;28;20048;-79
2022/01/31 03:46:58;;;;;;;22.30;3.30;;;6.10;99.90;;;;;;5093210;28;20294;-78
2022/01/31 03:49:24;;;;;;;17.02;3.88;;;6.10;99.90;;;;;;5095004;28;20544;-76
2022/01/31 03:51:49;;;;;;;17.10;2.87;;;6.10;99.90;;;;;;5093759;28;20127;-75
2022/01/31 03:54:15;;;;;;;20.97;3.77;;;6.10;99.90;;;;;;5076902;28;20134;-75
2022/01/31 03:56:41;;;;;;;16.43;2.63;;;6.00;99.90;;;;;;5093455;28;20052;-75
2022/01/31 03:59:07;;;;;;;19.67;3.97;;;6.00;99.90;;;;;;5094550;28;20471;-75
2022/01/31 04:01:33;;;;;;;16.63;2.50;;;5.90;99.90;;;;;;5094756;28;20052;-75
2022/01/31 04:03:59;;;;;;;17.13;3.50;;;5.80;99.90;;;;;;5094380;28;20048;-76
2022/01/31 04:06:25;;;;;;;15.13;2.90;;;5.80;99.90;;;;;;5093374;28;20049;-77
2022/01/31 04:08:51;;;;;;;18.10;3.10;;;5.70;99.90;;;;;;5094646;28;20051;-77
2022/01/31 04:11:17;;;;;;;26.50;4.40;;;5.70;99.90;;;;;;5094364;28;20480;-77
2022/01/31 04:13:43;;;;;;;24.27;4.45;;;5.70;99.90;;;;;;5094513;28;20044;-78
2022/01/31 04:16:08;;;;;;;24.70;4.53;;;5.60;99.90;;;;;;5076288;28;20051;-78
2022/01/31 04:18:34;;;;;;;29.27;4.53;;;5.60;99.90;;;;;;5093410;28;20467;-78
2022/01/31 04:21:00;;;;;;;27.70;4.23;;;5.60;99.90;;;;;;5092865;28;20076;-79
2022/01/31 04:23:28;;;;;;;26.42;4.13;;;5.60;99.90;;;;;;5094079;28;20048;-79
2022/01/31 04:26:02;;;;;;;39.33;5.55;;;5.60;99.90;;;;;;5093240;28;20456;-78
2022/01/31 04:28:38;;;;;;;31.27;5.13;;;5.60;99.90;;;;;;5075932;28;20048;-78
2022/01/31 04:31:24;;;;;;;25.35;3.95;;;5.60;99.90;;;;;;5094045;28;20046;-82
2022/01/31 04:33:51;;;;;;;21.52;3.70;;;5.60;99.90;;;;;;5093393;28;20052;-78
2022/01/31 04:36:18;;;;;;;17.42;3.08;;;5.60;99.90;;;;;;5092865;28;20044;-78
2022/01/31 04:38:45;;;;;;;17.52;3.03;;;5.50;99.90;;;;;;5092883;28;20056;-78
2022/01/31 04:41:12;;;;;;;21.80;3.30;;;5.60;99.90;;;;;;5093700;28;20047;-80
2022/01/31 04:43:38;;;;;;;23.20;3.90;;;5.60;99.90;;;;;;5092948;28;20109;-78
2022/01/31 04:46:06;;;;;;;23.95;4.13;;;5.60;99.90;;;;;;5092896;28;20040;-78
2022/01/31 04:48:32;;;;;;;36.67;6.32;;;5.60;99.90;;;;;;5093571;28;20510;-76
2022/01/31 04:50:58;;;;;;;37.35;4.47;;;5.60;99.90;;;;;;5093646;28;20462;-76
2022/01/31 04:53:24;;;;;;;25.33;4.70;;;5.70;99.90;;;;;;5093476;28;20044;-77
2022/01/31 04:55:50;;;;;;;25.53;4.73;;;5.70;99.90;;;;;;5093599;28;20058;-77
2022/01/31 04:58:16;;;;;;;24.88;3.63;;;5.70;99.90;;;;;;5092370;28;20373;-76
2022/01/31 05:00:42;;;;;;;17.48;2.55;;;5.60;99.90;;;;;;5092403;28;20063;-77
2022/01/31 05:03:13;;;;;;;19.27;2.70;;;5.60;99.90;;;;;;5092386;28;20067;-78
2022/01/31 05:05:40;;;;;;;20.15;3.42;;;5.60;99.90;;;;;;5093579;28;20048;-79
2022/01/31 05:08:06;;;;;;;18.83;2.53;;;5.60;99.90;;;;;;5093534;28;20052;-78
2022/01/31 05:10:34;;;;;;;18.90;2.73;;;5.50;99.90;;;;;;5092036;28;20040;-79
2022/01/31 05:13:00;;;;;;;13.27;2.70;;;5.50;99.90;;;;;;5092348;28;20044;-80
2022/01/31 05:15:26;;;;;;;14.50;2.72;;;5.50;99.90;;;;;;5093130;28;20373;-79
2022/01/31 05:17:52;;;;;;;17.20;2.88;;;5.50;99.90;;;;;;5092146;28;20052;-79
2022/01/31 05:20:18;;;;;;;16.77;2.87;;;5.50;99.90;;;;;;5075063;28;20044;-79
2022/01/31 05:22:44;;;;;;;12.20;2.40;;;5.40;99.90;;;;;;5093282;28;20047;-79
2022/01/31 05:25:09;;;;;;;17.23;2.33;;;5.50;99.90;;;;;;5093301;28;20036;-86
2022/01/31 05:27:35;;;;;;;21.20;2.60;;;5.50;99.90;;;;;;5092061;28;20506;-79
2022/01/31 05:30:01;;;;;;;11.43;2.83;;;5.50;99.90;;;;;;5093244;28;20051;-79
2022/01/31 05:32:27;;;;;;;16.00;2.50;;;5.50;99.90;;;;;;5092759;28;20048;-79
2022/01/31 05:34:52;;;;;;;16.07;2.27;;;5.50;99.90;;;;;;5093122;28;20040;-78
2022/01/31 05:37:18;;;;;;;15.17;3.00;;;5.50;99.90;;;;;;5092923;28;20105;-79
2022/01/31 05:39:45;;;;;;;19.27;2.47;;;5.60;99.90;;;;;;5075563;28;20044;-79
2022/01/31 05:42:11;;;;;;;18.02;3.05;;;5.50;99.90;;;;;;5092018;28;20492;-85
2022/01/31 05:44:37;;;;;;;18.30;2.23;;;5.50;99.90;;;;;;5075199;28;20062;-79
2022/01/31 05:47:03;;;;;;;19.70;2.80;;;5.50;99.90;;;;;;5092940;28;20047;-79
2022/01/31 05:49:29;;;;;;;27.35;3.47;;;5.50;99.90;;;;;;5091391;28;20079;-78
2022/01/31 05:52:04;;;;;;;24.03;3.97;;;5.50;99.90;;;;;;5092951;28;20086;-77
2022/01/31 05:54:32;;;;;;;22.63;3.78;;;5.50;99.90;;;;;;5092710;28;20044;-78
2022/01/31 05:56:59;;;;;;;17.58;2.83;;;5.60;99.90;;;;;;5092534;28;20056;-78
2022/01/31 05:59:25;;;;;;;18.77;3.03;;;5.60;99.90;;;;;;5092697;28;20100;-79
2022/01/31 06:01:51;;;;;;;19.55;3.83;;;5.60;99.90;;;;;;5091602;28;20040;-78
2022/01/31 06:04:17;;;;;;;21.50;3.35;;;5.60;99.90;;;;;;5091560;28;20052;-79
2022/01/31 06:06:43;;;;;;;19.13;3.60;;;5.70;99.90;;;;;;5074960;28;20051;-79
2022/01/31 06:09:08;;;;;;;18.60;2.77;;;5.70;99.90;;;;;;5094524;28;20048;-80
2022/01/31 06:11:34;;;;;;;20.10;2.67;;;5.70;99.90;;;;;;5095448;28;20384;-79
2022/01/31 06:14:01;;;;;;;23.83;2.80;;;5.70;99.90;;;;;;5078947;28;20403;-78
2022/01/31 06:16:28;;;;;;;24.42;3.67;;;5.70;99.90;;;;;;5096481;28;20442;-77
2022/01/31 06:18:54;;;;;;;20.50;3.20;;;5.70;99.90;;;;;;5096853;28;20044;-77
2022/01/31 06:21:20;;;;;;;18.33;4.00;;;5.70;99.90;;;;;;5096423;28;20048;-78
2022/01/31 06:23:46;;;;;;;21.67;2.93;;;5.70;99.90;;;;;;5095460;28;20054;-79
2022/01/31 06:26:12;;;;;;;14.97;2.20;;;5.70;99.90;;;;;;5078910;28;20157;-78
2022/01/31 06:28:38;;;;;;;21.98;3.03;;;5.70;99.90;;;;;;5096337;28;20059;-80
2022/01/31 06:31:04;;;;;;;19.67;3.25;;;5.70;99.90;;;;;;5095382;28;20101;-79
2022/01/31 06:33:29;;;;;;;20.43;3.73;;;5.80;99.90;;;;;;5096341;28;20040;-80
2022/01/31 06:35:55;;;;;;;12.67;2.50;;;5.70;99.90;;;;;;5095747;28;20556;-80
2022/01/31 06:38:22;;;;;;;14.13;2.47;;;5.80;99.90;;;;;;5096184;28;20051;-80
2022/01/31 06:40:49;;;;;;;16.73;2.70;;;5.80;99.90;;;;;;5094969;28;20048;-80
2022/01/31 06:43:14;;;;;;;14.82;2.85;;;5.70;99.90;;;;;;5129681;27;20040;-79
2022/01/31 06:45:40;;;;;;;15.17;2.20;;;5.70;99.90;;;;;;5078104;28;20087;-78
2022/01/31 06:48:06;;;;;;;16.40;3.23;;;5.70;99.90;;;;;;5095396;28;20083;-77
2022/01/31 06:50:33;;;;;;;15.98;2.40;;;5.70;99.90;;;;;;5095912;28;20051;-77
2022/01/31 06:53:00;;;;;;;23.88;3.53;;;5.60;99.90;;;;;;5095101;28;20048;-76
2022/01/31 06:55:28;;;;;;;16.05;2.80;;;5.60;99.90;;;;;;5095613;28;20059;-77
2022/01/31 06:57:54;;;;;;;19.25;2.83;;;5.60;99.90;;;;;;5094722;28;20056;-77
2022/01/31 07:00:20;;;;;;;21.73;3.40;;;5.60;99.90;;;;;;5095999;28;20377;-78
2022/01/31 07:02:47;;;;;;;19.77;3.58;;;5.60;99.90;;;;;;5095923;28;20055;-78
2022/01/31 07:05:14;;;;;;;25.88;4.43;;;5.60;99.90;;;;;;5094960;28;20051;-77
2022/01/31 07:07:40;;;;;;;28.92;3.92;;;5.70;99.90;;;;;;5094481;28;20058;-76
2022/01/31 07:10:07;;;;;;;29.90;5.18;;;5.70;99.90;;;;;;5094624;28;20431;-76
2022/01/31 07:12:33;;;;;;;22.15;4.38;;;5.70;99.90;;;;;;5077125;28;20056;-75
2022/01/31 07:15:00;;;;;;;23.00;4.47;;;5.70;99.90;;;;;;5095716;28;20048;-76
2022/01/31 07:17:26;;;;;;;22.17;4.00;;;5.70;99.90;;;;;;5095558;28;20094;-76
2022/01/31 07:19:53;;;;;;;28.40;4.10;;;5.70;99.90;;;;;;5094686;28;20553;-76
2022/01/31 07:22:22;;;;;;;27.35;5.25;;;5.80;99.90;;;;;;5094286;28;20052;-76
2022/01/31 07:25:02;;;;;;;31.95;4.43;;;5.80;99.90;;;;;;5095330;28;20083;-77
2022/01/31 07:27:28;;;;;;;32.75;6.00;;;5.80;99.90;;;;;;5095233;28;20544;-77
2022/01/31 07:29:53;;;;;;;31.80;4.70;;;5.90;99.90;;;;;;5095435;28;20136;-78
2022/01/31 07:32:20;;;;;;;27.77;4.73;;;6.00;99.90;;;;;;5094208;28;20273;-79
2022/01/31 07:34:46;;;;;;;25.77;4.00;;;6.00;99.90;;;;;;5094146;28;20055;-79
2022/01/31 07:37:12;;;;;;;31.92;4.65;;;6.00;99.90;;;;;;5094551;28;20071;-78
2022/01/31 07:39:42;;;;;;;28.33;4.70;;;6.00;99.90;;;;;;5095173;28;20043;-77
2022/01/31 07:42:09;;;;;;;26.30;4.15;;;6.00;99.90;;;;;;5094480;28;20469;-77
2022/01/31 07:44:35;;;;;;;36.08;5.47;;;6.00;99.90;;;;;;5094965;28;20131;-78
2022/01/31 07:47:03;;;;;;;24.38;5.07;;;6.00;99.90;;;;;;5094086;28;20105;-78
2022/01/31 07:49:29;;;;;;;30.73;4.47;;;;;;;;;;5094784;28;20040;-78
2022/01/31 07:51:56;;;;;;;25.92;4.50;;;;;;;;;;5095000;28;20040;-77
2022/01/31 07:54:22;;;;;;;39.97;5.28;;;;;;;;;;5093923;28;20206;-76
2022/01/31 07:56:49;;;;;;;40.38;6.03;;;;;;;;;;5094815;28;20484;-77
2022/01/31 07:59:15;;;;;;;32.00;4.82;;;;;;;;;;5093962;28;20088;-77
2022/01/31 08:01:41;;;;;;;27.63;5.07;;;;;;;;;;5094747;28;20109;-77
2022/01/31 08:04:07;;;;;;;26.88;4.82;;;;;;;;;;5077162;28;20077;-77
2022/01/31 08:06:33;;;;;;;34.80;4.20;;;;;;;;;;5094513;28;20097;-77
2022/01/31 08:09:00;;;;;;;32.88;4.55;;;;;;;;;;5094775;28;20463;-77
2022/01/31 08:11:31;;;;;;;30.10;4.82;;;;;;;;;;5093932;28;20394;-78
2022/01/31 08:14:01;;;;;;;21.92;3.78;;;;;;;;;;5095186;28;20119;-77
2022/01/31 08:16:27;;;;;;;26.27;3.65;;;;;;;;;;5093516;28;20051;-77
2022/01/31 08:18:53;;;;;;;20.48;3.40;;;;;;;;;;5094255;28;20441;-77
2022/01/31 08:21:25;;;;;;;24.88;3.92;;;;;;;;;;5094577;28;20079;-77
2022/01/31 08:23:53;;;;;;;33.22;4.20;;;6.40;99.90;;;;;;5076075;28;20040;-77
2022/01/31 08:26:20;;;;;;;19.55;3.17;;;6.40;99.90;;;;;;5094602;28;20056;-76
2022/01/31 08:31:40;;;;;;;14.43;2.58;;;6.40;99.90;;;;;;5094069;28;20093;-77
2022/01/31 08:34:18;;;;;;;14.50;2.50;;;6.40;99.90;;;;;;5093672;28;20476;-76
2022/01/31 08:36:44;;;;;;;14.50;2.35;;;6.40;99.90;;;;;;5093936;28;20048;-76
2022/01/31 08:39:17;;;;;;;14.25;2.50;;;6.50;99.90;;;;;;5094024;28;20040;-76
2022/01/31 08:41:48;;;;;;;12.40;2.55;;;6.50;99.90;;;;;;5093711;28;20043;-76
2022/01/31 08:44:17;;;;;;;12.52;3.22;;;6.50;99.90;;;;;;5076351;28;20515;-76
2022/01/31 08:46:45;;;;;;;17.77;2.78;;;6.40;99.90;;;;;;5093595;28;20400;-76
2022/01/31 08:49:13;;;;;;;14.00;2.10;;;6.40;99.90;;;;;;5093980;28;20058;-76
2022/01/31 08:51:40;;;;;;;15.88;2.88;;;6.40;99.90;;;;;;5093536;28;20044;-76
2022/01/31 08:54:06;;;;;;;15.32;2.83;;;6.40;99.90;;;;;;5093689;28;20048;-77
2022/01/31 08:56:40;;;;;;;11.30;2.60;;;6.50;99.90;;;;;;5093349;28;20134;-76
2022/01/31 08:59:12;;;;;;;14.43;2.17;;;6.50;99.90;;;;;;5094020;28;20083;-77
2022/01/31 09:01:38;;;;;;;14.85;2.80;;;6.50;99.90;;;;;;5092296;28;20048;-78
2022/01/31 09:04:05;;;;;;;19.27;2.80;;;6.50;99.90;;;;;;5093632;28;20116;-77
2022/01/31 09:06:34;;;;;;;17.73;2.53;;;6.50;99.90;;;;;;5092834;28;20052;-77
2022/01/31 09:09:05;;;;;;;16.50;2.35;;;6.60;99.90;;;;;;5093807;28;20090;-77
2022/01/31 09:11:31;;;;;;;13.25;1.98;;;6.70;99.90;;;;;;5093474;28;20059;-77
2022/01/31 09:13:58;;;;;;;13.75;2.42;;;6.60;99.90;;;;;;5093042;28;20055;-77
2022/01/31 09:16:24;;;;;;;10.02;1.92;;;6.60;99.90;;;;;;5091936;28;20138;-77
2022/01/31 09:18:50;;;;;;;18.27;2.60;;;6.70;99.90;;;;;;5092257;28;20139;-77
2022/01/31 09:21:16;;;;;;;15.10;2.07;;;6.60;99.90;;;;;;5093240;28;20036;-76
2022/01/31 09:23:42;;;;;;;14.50;2.63;;;6.60;99.90;;;;;;5093341;28;20044;-78
2022/01/31 09:26:09;;;;;;;13.98;2.42;;;6.70;99.90;;;;;;5093378;28;20070;-77
2022/01/31 09:28:36;;;;;;;18.90;2.00;;;6.60;99.90;;;;;;5093482;28;20058;-76
2022/01/31 09:31:02;;;;;;;14.73;2.40;;;6.70;99.90;;;;;;5093141;28;20119;-76
2022/01/31 09:33:29;;;;;;;12.25;1.77;;;6.70;99.90;;;;;;5093228;28;20040;-77
2022/01/31 09:35:54;;;;;;;14.13;2.03;;;6.70;99.90;;;;;;5093024;28;20436;-76
2022/01/31 09:38:24;;;;;;;15.40;2.70;;;6.70;99.90;;;;;;5093274;28;20043;-77
2022/01/31 09:40:51;;;;;;;18.88;2.30;;;6.70;99.90;;;;;;5091430;28;20036;-76
2022/01/31 09:46:00;;;;;;;11.18;2.05;;;6.80;99.90;;;;;;5092868;28;20055;-78
2022/01/31 09:48:38;;;;;;;13.05;2.42;;;6.80;99.90;;;;;;5089909;28;20047;-76
2022/01/31 09:51:21;;;;;;;13.27;1.85;;;6.90;99.90;;;;;;5092341;28;20081;-77
2022/01/31 09:53:52;;;;;;;14.23;2.40;;;6.90;99.90;;;;;;5074369;28;20480;-78
2022/01/31 09:56:24;;;;;;;12.57;2.00;;;6.90;99.90;;;;;;5092357;28;20047;-77
2022/01/31 09:58:52;;;;;;;14.15;2.00;;;6.90;99.90;;;;;;5092776;28;20082;-76
2022/01/31 10:01:21;;;;;;;19.77;2.92;;;6.90;99.90;;;;;;5091977;28;20044;-77
2022/01/31 10:03:51;;;;;;;16.30;2.60;;;7.00;99.90;;;;;;5092931;28;20048;-77
2022/01/31 10:06:26;;;;;;;15.27;2.60;;;7.10;99.90;;;;;;5093233;28;20048;-77
2022/01/31 10:09:08;;;;;;;12.25;2.50;;;7.10;99.90;;;;;;5092915;28;20048;-78
2022/01/31 10:11:42;;;;;;;16.42;2.50;;;7.20;99.90;;;;;;5092087;28;20062;-78
2022/01/31 10:16:57;;;;;;;18.10;2.70;;;7.10;99.90;;;;;;5092749;28;20152;-77
2022/01/31 10:19:23;;;;;;;15.45;2.60;;;7.10;99.90;;;;;;5092788;28;20051;-74
2022/01/31 10:22:08;;;;;;;21.30;3.03;;;7.20;99.90;;;;;;5091939;28;20048;-77
2022/01/31 10:24:36;;;;;;;20.75;3.28;;;7.30;99.90;;;;;;5091904;28;20048;-81
2022/01/31 10:27:15;;;;;;;21.30;3.13;;;7.40;99.90;;;;;;5092397;28;20069;-84
2022/01/31 10:29:43;;;;;;;25.10;3.40;;;7.40;99.90;;;;;;5091817;28;20052;-81
2022/01/31 10:32:17;;;;;;;13.90;2.47;;;7.30;99.90;;;;;;5074487;28;20079;-81
2022/01/31 10:34:55;;;;;;;24.75;3.30;;;7.40;99.90;;;;;;5092669;28;20059;-79
2022/01/31 10:37:22;;;;;;;23.55;4.45;;;7.30;99.90;;;;;;5092289;28;20491;-79
2022/01/31 10:56:33;;;;;;;12.10;2.08;;;7.10;99.90;;;;;;5095765;28;20052;-77
2022/01/31 10:59:02;;;;;;;11.02;1.95;;;7.10;99.90;;;;;;5095937;28;20135;-79
2022/01/31 11:01:29;;;;;;;11.70;2.10;;;7.10;99.90;;;;;;5095461;28;20032;-78
2022/01/31 11:03:56;;;;;;;12.90;2.08;;;7.10;99.90;;;;;;5095574;28;20093;-76
2022/01/31 11:06:23;;;;;;;14.80;2.42;;;7.10;99.90;;;;;;5096141;28;20064;-78
2022/01/31 11:08:50;;;;;;;13.00;1.80;;;7.20;99.90;;;;;;5094618;28;20060;-83
2022/01/31 11:11:18;;;;;;;15.90;2.22;;;7.20;99.90;;;;;;5095858;28;20105;-78
2022/01/31 11:13:44;;;;;;;14.38;2.38;;;7.30;99.90;;;;;;5095677;28;20055;-78
2022/01/31 11:16:10;;;;;;;9.10;1.52;;;7.30;99.90;;;;;;5094294;28;20048;-79
2022/01/31 11:18:36;;;;;;;13.40;1.67;;;7.30;99.90;;;;;;5094235;28;20059;-78
2022/01/31 11:21:07;;;;;;;12.27;1.83;;;7.30;99.90;;;;;;5094206;28;20084;-77
2022/01/31 11:23:39;;;;;;;9.50;1.85;;;7.30;99.90;;;;;;5095724;28;20131;-77
2022/01/31 11:26:10;;;;;;;15.02;2.42;;;7.30;99.90;;;;;;5095234;28;20476;-75
2022/01/31 11:28:39;;;;;;;15.10;2.33;;;7.30;99.90;;;;;;5095456;28;20600;-76
2022/01/31 11:31:06;;;;;;;14.90;2.20;;;7.40;99.90;;;;;;5095189;28;20051;-76
2022/01/31 11:33:36;;;;;;;11.30;1.90;;;7.40;99.90;;;;;;5095516;28;20392;-76
2022/01/31 11:36:03;;;;;;;15.13;2.50;;;7.40;99.90;;;;;;5095122;28;20048;-76
2022/01/31 11:38:29;;;;;;;17.05;2.88;;;7.40;99.90;;;;;;5095188;28;20048;-76
2022/01/31 11:41:01;;;;;;;13.32;2.83;;;7.50;99.90;;;;;;5094852;28;20476;-82
2022/01/31 11:43:27;;;;;;;16.93;2.90;;;7.40;99.90;;;;;;5094479;28;20052;-76
2022/01/31 11:45:54;;;;;;;17.52;3.33;;;7.50;99.90;;;;;;5095204;28;20629;-76
2022/01/31 11:48:23;;;;;;;15.63;3.75;;;7.40;99.90;;;;;;5094891;28;20044;-76
2022/01/31 11:50:55;;;;;;;16.25;2.70;;;7.40;99.90;;;;;;5095170;28;20044;-77
2022/01/31 11:53:47;;;;;;;14.07;2.83;;;7.50;99.90;;;;;;5094917;28;20126;-77
2022/01/31 11:56:22;;;;;;;11.48;2.60;;;7.50;99.90;;;;;;5092989;28;20056;-78
2022/01/31 11:58:51;;;;;;;15.75;2.28;;;7.50;99.90;;;;;;5095078;28;20055;-77
2022/01/31 12:01:18;;;;;;;15.02;2.35;;;7.60;99.90;;;;;;5094122;28;20886;-77
2022/01/31 12:03:58;;;;;;;16.55;2.88;;;7.60;99.90;;;;;;5094790;28;20126;-77
2022/01/31 12:06:26;;;;;;;15.13;3.25;;;;;;;;;;5092460;28;20052;-77
2022/01/31 12:08:54;;;;;;;11.52;2.22;;;7.90;99.90;;;;;;5094698;28;20131;-77
2022/01/31 12:11:29;;;;;;;11.48;2.22;;;;;;;;;;5094328;28;20050;-77
2022/01/31 12:14:08;;;;;;;17.60;3.42;;;;;;;;;;5093115;28;20051;-78
2022/01/31 12:22:01;;;;;;;16.30;3.10;;;8.30;99.90;;;;;;5094359;28;20044;-73
2022/01/31 12:24:29;;;;;;;16.47;2.43;;;8.20;99.90;;;;;;5093380;28;20054;-73
2022/01/31 12:26:56;;;;;;;18.20;3.20;;;8.30;99.90;;;;;;5094296;28;20290;-74
2022/01/31 12:29:30;;;;;;;20.95;3.03;;;8.20;99.90;;;;;;5094008;28;20054;-74
2022/01/31 12:32:15;;;;;;;23.02;3.30;;;8.20;99.90;;;;;;5094360;28;20391;-74
2022/01/31 12:34:46;;;;;;;;;;;8.20;99.90;;;;;;5094028;28;20080;-74
2022/01/31 12:37:26;;;;;;;24.30;3.50;;;8.20;99.90;;;;;;5093897;28;19924;-74
2022/01/31 12:40:04;;;;;;;17.58;3.40;;;8.20;99.90;;;;;;5094142;28;20289;-74
2022/01/31 12:45:09;;;;;;;17.63;3.67;;;8.20;99.90;;;;;;5093889;28;20739;-76
2022/01/31 12:47:35;;;;;;;14.70;2.50;;;8.20;99.90;;;;;;5094127;28;20393;-74
2022/01/31 12:50:20;;;;;;;17.67;3.23;;;8.20;99.90;;;;;;5093938;28;20488;-78
2022/01/31 12:52:46;;;;;;;22.30;3.33;;;8.20;99.90;;;;;;5093820;28;20043;-74
2022/01/31 12:55:12;;;;;;;21.53;3.87;;;8.20;99.90;;;;;;5093555;28;20204;-74
2022/01/31 12:57:48;;;;;;;30.15;4.53;;;8.20;99.90;;;;;;5095229;28;20056;-95
2022/01/31 13:00:14;;;;;;;22.50;4.23;;;8.20;99.90;;;;;;5094952;28;20043;-94
2022/01/31 13:02:50;;;;;;;22.67;3.90;;;8.20;99.90;;;;;;5076934;28;20792;-88
2022/01/31 13:05:15;;;;;;;;;;;8.20;99.90;;;;;;5076535;28;20343;-91
2022/01/31 13:07:41;;;;;;;31.70;5.50;;;8.10;99.90;;;;;;5093445;28;19926;-95
2022/01/31 13:10:09;;;;;;;29.20;5.10;;;8.10;99.90;;;;;;5092552;28;20127;-90
2022/01/31 13:12:36;;;;;;;32.00;5.20;;;8.10;99.90;;;;;;5093186;28;20135;-83
2022/01/31 13:15:03;;;;;;;36.07;6.27;;;8.10;99.90;;;;;;5093606;28;20270;-81
2022/01/31 13:17:29;;;;;;;29.70;4.63;;;8.10;99.90;;;;;;5092725;28;20290;-76
2022/01/31 13:19:57;;;;;;;35.07;5.73;;;8.20;99.90;;;;;;5093175;28;20583;-76
2022/01/31 13:22:28;;;;;;;27.53;5.03;;;8.20;99.90;;;;;;5093031;28;20325;-75
2022/01/31 13:24:57;;;;;;;26.37;5.23;;;8.20;99.90;;;;;;5093358;28;20282;-75
2022/01/31 13:27:52;;;;;;;26.27;4.90;;;8.10;99.90;;;;;;5092961;28;20321;-74
2022/01/31 13:30:22;;;;;;;30.50;4.80;;;8.10;99.90;;;;;;5088175;28;20780;-75
2022/01/31 13:32:49;;;;;;;25.60;5.90;;;8.10;99.90;;;;;;5093201;28;20356;-92
2022/01/31 13:35:18;;;;;;;26.27;4.73;;;8.10;99.90;;;;;;5092254;28;20290;-94
2022/01/31 13:38:03;;;;;;;20.27;4.27;;;8.10;99.90;;;;;;5076681;28;20347;-90
2022/01/31 13:40:33;;;;;;;33.30;4.88;;;8.00;99.90;;;;;;5093668;28;20393;-92
2022/01/31 13:43:13;;;;;;;32.13;5.00;;;8.10;99.90;;;;;;5093398;28;20616;-89
2022/01/31 13:46:08;;;;;;;28.37;5.13;;;8.00;99.90;;;;;;5091160;28;20282;-77